createdAt,value
2019-04-30T00:01:55.701Z,39.00
2019-04-30T00:04:29.934Z,35.10
2019-04-30T00:06:58.902Z,34.97
2019-04-30T00:09:28.728Z,33.53
2019-04-30T00:12:01.054Z,38.33
2019-04-30T00:14:37.284Z,34.97
2019-04-30T00:16:59.818Z,36.43
2019-04-30T00:19:28.980Z,35.57
2019-04-30T00:22:00.447Z,38.70
2019-04-30T00:24:29.189Z,37.77
2019-04-30T00:26:58.666Z,36.70
2019-04-30T00:29:30.844Z,35.87
2019-04-30T00:32:04.394Z,39.43
2019-04-30T00:34:30.882Z,38.37
2019-04-30T00:37:00.714Z,37.07
2019-04-30T00:39:29.955Z,38.53
2019-04-30T00:41:59.077Z,37.27
2019-04-30T00:44:28.590Z,36.57
2019-04-30T00:47:00.595Z,39.10
2019-04-30T00:49:28.774Z,39.93
2019-04-30T00:51:58.349Z,42.63
2019-04-30T00:54:30.662Z,42.93
2019-04-30T00:57:03.694Z,41.60
2019-04-30T00:59:29.466Z,39.40
2019-04-30T01:02:11.471Z,37.03
2019-04-30T01:04:49.538Z,36.43
2019-04-30T01:07:18.804Z,40.33
2019-04-30T01:09:49.853Z,43.23
2019-04-30T01:12:27.587Z,42.03
2019-04-30T01:14:49.968Z,37.70
2019-04-30T01:17:19.150Z,43.37
2019-04-30T01:19:51.194Z,46.77
2019-04-30T01:22:27.758Z,48.40
2019-04-30T01:24:50.292Z,42.27
2019-04-30T01:27:19.915Z,43.03
2019-04-30T01:29:49.060Z,44.37
2019-04-30T01:32:20.986Z,49.60
2019-04-30T01:34:53.845Z,51.00
2019-04-30T01:37:24.920Z,52.83
2019-04-30T01:39:51.146Z,56.00
2019-04-30T01:42:20.278Z,62.20
2019-04-30T01:44:53.595Z,59.27
2019-04-30T01:47:21.470Z,55.13
2019-04-30T01:49:51.230Z,58.17
2019-04-30T01:52:20.426Z,53.73
2019-04-30T01:54:49.587Z,57.37
2019-04-30T01:57:36.762Z,56.37
2019-04-30T02:00:34.700Z,54.00
2019-04-30T02:03:03.847Z,53.70
2019-04-30T02:05:32.994Z,50.73
2019-04-30T02:08:02.188Z,54.10
2019-04-30T02:10:31.328Z,51.83
2019-04-30T02:13:00.569Z,53.17
2019-04-30T02:15:29.720Z,45.87
2019-04-30T02:17:58.975Z,48.83
2019-04-30T02:20:28.791Z,48.53
2019-04-30T02:22:58.655Z,50.33
2019-04-30T02:25:29.566Z,49.43
2019-04-30T02:27:59.270Z,47.43
2019-04-30T02:30:30.996Z,44.77
2019-04-30T02:33:00.576Z,45.07
2019-04-30T02:35:52.183Z,40.80
2019-04-30T02:38:25.708Z,34.93
2019-04-30T02:40:55.255Z,34.60
2019-04-30T02:43:25.690Z,30.57
2019-04-30T02:45:59.966Z,29.63
2019-04-30T02:48:31.425Z,26.80
2019-04-30T02:51:03.515Z,27.37
2019-04-30T02:54:06.618Z,24.20
2019-04-30T02:56:35.788Z,27.47
2019-04-30T02:59:05.076Z,27.07
2019-04-30T03:01:34.398Z,33.33
2019-04-30T03:04:03.730Z,31.33
2019-04-30T03:06:32.910Z,31.67
2019-04-30T03:09:02.096Z,29.97
2019-04-30T03:11:31.247Z,31.20
2019-04-30T03:14:00.419Z,29.67
2019-04-30T03:16:39.958Z,30.50
2019-04-30T03:19:29.320Z,35.37
2019-04-30T03:22:05.163Z,31.20
2019-04-30T03:24:34.324Z,29.03
2019-04-30T03:27:03.550Z,33.53
2019-04-30T03:29:32.820Z,34.53
2019-04-30T03:32:03.481Z,31.77
2019-04-30T03:34:33.377Z,31.63
2019-04-30T03:37:02.711Z,32.20
2019-04-30T03:39:34.043Z,33.10
2019-04-30T03:42:02.792Z,30.97
2019-04-30T03:44:32.518Z,35.30
2019-04-30T03:47:05.066Z,29.20
2019-04-30T03:49:34.217Z,29.43
2019-04-30T03:52:03.434Z,29.40
2019-04-30T03:54:32.573Z,31.63
2019-04-30T03:57:01.763Z,30.00
2019-04-30T03:59:31.029Z,33.07
2019-04-30T04:02:30.197Z,33.00
2019-04-30T04:05:10.329Z,34.53
2019-04-30T04:07:59.843Z,33.67
2019-04-30T04:10:40.341Z,30.00
2019-04-30T04:13:10.349Z,33.67
2019-04-30T04:15:40.146Z,34.03
2019-04-30T04:18:10.718Z,34.17
2019-04-30T04:20:42.854Z,31.47
2019-04-30T04:23:11.258Z,36.63
2019-04-30T04:25:40.421Z,32.10
2019-04-30T04:28:10.045Z,34.10
2019-04-30T04:30:42.897Z,32.27
2019-04-30T04:33:10.547Z,32.67
2019-04-30T04:35:40.087Z,34.00
2019-04-30T04:38:12.237Z,35.23
2019-04-30T04:40:41.968Z,37.33
2019-04-30T04:43:11.150Z,40.90
2019-04-30T04:45:43.690Z,35.50
2019-04-30T04:48:11.531Z,38.60
2019-04-30T04:50:40.665Z,32.57
2019-04-30T04:53:11.561Z,35.67
2019-04-30T04:55:40.958Z,33.00
2019-04-30T04:58:12.968Z,32.70
2019-04-30T05:00:41.083Z,37.57
2019-04-30T05:03:29.879Z,38.00
2019-04-30T05:06:02.276Z,34.17
2019-04-30T05:08:30.193Z,32.80
2019-04-30T05:10:59.508Z,33.37
2019-04-30T05:13:29.148Z,33.93
2019-04-30T05:15:59.421Z,37.70
2019-04-30T05:18:29.107Z,34.27
2019-04-30T05:20:59.045Z,35.20
2019-04-30T05:23:29.827Z,32.10
2019-04-30T05:25:59.180Z,40.60
2019-04-30T05:28:30.125Z,34.90
2019-04-30T05:30:59.590Z,33.57
2019-04-30T05:33:28.790Z,33.20
2019-04-30T05:35:59.446Z,35.30
2019-04-30T05:38:31.268Z,34.53
2019-04-30T05:40:59.825Z,34.57
2019-04-30T05:43:29.121Z,38.17
2019-04-30T05:45:58.777Z,35.47
2019-04-30T05:48:28.768Z,33.53
2019-04-30T05:50:59.082Z,32.00
2019-04-30T05:53:28.770Z,32.27
2019-04-30T05:55:59.340Z,35.07
2019-04-30T05:58:30.025Z,32.90
2019-04-30T06:00:59.788Z,30.53
2019-04-30T06:03:32.912Z,28.63
2019-04-30T06:05:59.986Z,30.83
2019-04-30T06:08:39.171Z,30.67
2019-04-30T06:11:11.299Z,32.50
2019-04-30T06:13:51.226Z,26.17
2019-04-30T06:16:22.419Z,30.57
2019-04-30T06:18:53.162Z,29.13
2019-04-30T06:21:22.374Z,26.53
2019-04-30T06:23:51.865Z,31.10
2019-04-30T06:26:21.434Z,29.80
2019-04-30T06:28:50.954Z,29.43
2019-04-30T06:31:31.816Z,30.50
2019-04-30T06:33:51.204Z,36.70
2019-04-30T06:36:20.709Z,34.67
2019-04-30T06:38:50.081Z,31.67
2019-04-30T06:41:19.796Z,31.53
2019-04-30T06:43:49.951Z,33.47
2019-04-30T06:46:19.135Z,31.37
2019-04-30T06:48:51.017Z,34.00
2019-04-30T06:51:20.245Z,31.17
2019-04-30T06:53:51.250Z,29.03
2019-04-30T06:56:20.358Z,30.67
2019-04-30T06:58:52.362Z,31.17
2019-04-30T07:01:20.513Z,31.33
2019-04-30T07:03:49.707Z,30.27
2019-04-30T07:06:29.214Z,27.63
2019-04-30T07:09:33.532Z,30.63
2019-04-30T07:12:06.588Z,30.40
2019-04-30T07:14:35.755Z,29.63
2019-04-30T07:17:05.242Z,34.47
2019-04-30T07:19:52.457Z,30.20
2019-04-30T07:22:05.861Z,30.00
2019-04-30T07:24:35.001Z,30.50
2019-04-30T07:27:04.222Z,29.93
2019-04-30T07:29:33.498Z,27.10
2019-04-30T07:32:02.704Z,31.33
2019-04-30T07:34:36.923Z,29.63
2019-04-30T07:37:15.914Z,27.47
2019-04-30T07:39:33.962Z,30.97
2019-04-30T07:42:03.463Z,29.43
2019-04-30T07:44:36.478Z,30.47
2019-04-30T07:47:03.623Z,35.23
2019-04-30T07:49:46.979Z,33.90
2019-04-30T07:52:04.731Z,34.87
2019-04-30T07:54:34.221Z,30.13
2019-04-30T07:57:03.578Z,29.00
2019-04-30T07:59:32.795Z,26.03
2019-04-30T08:02:10.045Z,32.87
2019-04-30T08:04:51.323Z,33.37
2019-04-30T08:07:20.822Z,26.67
2019-04-30T08:09:50.148Z,29.83
2019-04-30T08:12:28.206Z,30.53
2019-04-30T08:14:50.552Z,31.00
2019-04-30T08:17:19.728Z,43.53
2019-04-30T08:19:50.738Z,33.87
2019-04-30T08:22:22.842Z,27.87
2019-04-30T08:24:52.045Z,24.47
2019-04-30T08:27:21.316Z,24.07
2019-04-30T08:29:50.513Z,23.10
2019-04-30T08:32:19.697Z,26.77
2019-04-30T08:34:50.124Z,28.33
2019-04-30T08:37:20.251Z,23.83
2019-04-30T08:39:49.832Z,31.20
2019-04-30T08:42:30.738Z,25.63
2019-04-30T08:44:50.416Z,28.40
2019-04-30T08:47:21.308Z,26.20
2019-04-30T08:49:50.835Z,24.03
2019-04-30T08:52:20.506Z,21.93
2019-04-30T08:54:49.888Z,20.77
2019-04-30T08:57:19.415Z,19.13
2019-04-30T08:59:49.485Z,23.80
2019-04-30T09:02:19.690Z,21.30
2019-04-30T09:04:52.490Z,19.73
2019-04-30T09:07:21.668Z,18.27
2019-04-30T09:09:50.861Z,17.53
2019-04-30T09:12:20.010Z,18.03
2019-04-30T09:14:49.281Z,21.93
2019-04-30T09:17:19.875Z,20.45
2019-04-30T09:19:49.199Z,16.90
2019-04-30T09:22:19.488Z,20.47
2019-04-30T09:24:49.748Z,20.80
2019-04-30T09:27:19.655Z,18.20
2019-04-30T09:29:49.414Z,19.20
2019-04-30T09:32:19.442Z,16.17
2019-04-30T09:34:49.022Z,17.90
2019-04-30T09:37:18.825Z,16.97
2019-04-30T09:39:49.413Z,16.70
2019-04-30T09:42:19.580Z,17.67
2019-04-30T09:44:49.394Z,12.40
2019-04-30T09:47:20.104Z,18.67
2019-04-30T09:49:49.671Z,17.60
2019-04-30T09:52:19.831Z,14.73
2019-04-30T09:54:50.335Z,16.57
2019-04-30T09:57:20.008Z,15.50
2019-04-30T09:59:49.565Z,13.72
2019-04-30T10:02:19.254Z,15.03
2019-04-30T10:04:48.913Z,12.93
2019-04-30T10:07:19.518Z,17.45
2019-04-30T10:09:50.877Z,18.10
2019-04-30T10:12:19.759Z,20.08
2019-04-30T10:14:49.407Z,16.90
2019-04-30T10:17:38.296Z,15.98
2019-04-30T10:20:11.205Z,15.63
2019-04-30T10:22:40.426Z,18.93
2019-04-30T10:25:10.298Z,14.38
2019-04-30T10:27:39.561Z,15.98
2019-04-30T10:30:09.903Z,15.95
2019-04-30T10:32:39.085Z,18.30
2019-04-30T10:35:08.483Z,18.35
2019-04-30T10:37:38.748Z,13.98
2019-04-30T10:40:10.288Z,19.32
2019-04-30T10:42:39.597Z,15.03
2019-04-30T10:45:09.980Z,16.95
2019-04-30T10:47:39.516Z,17.95
2019-04-30T10:50:09.910Z,17.10
2019-04-30T10:52:39.457Z,18.67
2019-04-30T10:55:09.387Z,18.50
2019-04-30T10:57:39.675Z,20.23
2019-04-30T11:00:13.956Z,23.37
2019-04-30T11:02:43.363Z,16.37
2019-04-30T11:05:13.068Z,14.30
2019-04-30T11:07:42.512Z,16.23
2019-04-30T11:10:12.096Z,16.50
2019-04-30T11:12:41.306Z,15.25
2019-04-30T11:15:10.696Z,16.75
2019-04-30T11:17:40.146Z,13.88
2019-04-30T11:20:11.406Z,15.88
2019-04-30T11:22:41.068Z,14.47
2019-04-30T11:25:12.385Z,14.75
2019-04-30T11:27:42.467Z,17.32
2019-04-30T11:30:21.399Z,15.05
2019-04-30T11:32:43.512Z,11.10
2019-04-30T11:35:13.838Z,11.95
2019-04-30T11:37:43.035Z,15.23
2019-04-30T11:40:13.681Z,14.47
2019-04-30T11:42:42.933Z,15.13
2019-04-30T11:45:14.893Z,14.15
2019-04-30T11:47:53.070Z,15.68
2019-04-30T11:50:15.446Z,11.55
2019-04-30T11:52:44.620Z,13.13
2019-04-30T11:55:13.993Z,13.80
2019-04-30T11:57:43.199Z,13.08
2019-04-30T12:00:18.814Z,13.35
2019-04-30T12:02:52.644Z,12.55
2019-04-30T12:05:20.827Z,13.53
2019-04-30T12:07:55.506Z,11.35
2019-04-30T12:10:52.791Z,10.05
2019-04-30T12:13:32.857Z,12.70
2019-04-30T12:16:02.412Z,10.60
2019-04-30T12:18:31.643Z,14.95
2019-04-30T12:21:01.163Z,11.40
2019-04-30T12:23:30.435Z,13.50
2019-04-30T12:26:02.655Z,12.33
2019-04-30T12:28:30.936Z,12.90
2019-04-30T12:31:00.177Z,13.65
2019-04-30T12:33:29.499Z,15.80
2019-04-30T12:35:59.621Z,14.45
2019-04-30T12:38:29.834Z,15.68
2019-04-30T12:40:59.244Z,14.65
2019-04-30T12:43:28.583Z,13.72
2019-04-30T12:46:03.507Z,14.65
2019-04-30T12:48:42.827Z,10.63
2019-04-30T12:51:46.029Z,13.40
2019-04-30T12:54:17.031Z,9.55
2019-04-30T12:57:14.104Z,12.73
2019-04-30T12:59:43.321Z,12.37
2019-04-30T13:02:12.835Z,12.43
2019-04-30T13:04:42.046Z,10.72
2019-04-30T13:07:12.070Z,9.15
2019-04-30T13:09:42.129Z,12.05
2019-04-30T13:12:12.365Z,14.65
2019-04-30T13:14:51.333Z,8.58
2019-04-30T13:17:13.174Z,11.10
2019-04-30T13:19:42.435Z,9.13
2019-04-30T13:22:11.648Z,8.08
2019-04-30T13:24:40.961Z,12.63
2019-04-30T13:27:10.215Z,10.40
2019-04-30T13:29:49.098Z,9.60
2019-04-30T13:32:29.580Z,9.75
2019-04-30T13:34:56.197Z,10.95
2019-04-30T13:37:28.959Z,10.85
2019-04-30T13:40:15.373Z,10.82
2019-04-30T13:42:48.823Z,11.90
2019-04-30T13:45:18.652Z,9.73
2019-04-30T13:47:49.059Z,10.78
2019-04-30T13:50:19.713Z,8.93
2019-04-30T13:52:49.438Z,8.20
2019-04-30T13:55:19.168Z,8.85
2019-04-30T13:57:48.569Z,10.60
2019-04-30T14:00:22.897Z,7.20
2019-04-30T14:03:00.604Z,12.70
2019-04-30T14:05:29.528Z,9.78
2019-04-30T14:08:22.207Z,8.03
2019-04-30T14:10:51.378Z,9.13
2019-04-30T14:13:21.461Z,11.53
2019-04-30T14:15:50.820Z,9.95
2019-04-30T14:18:28.510Z,9.00
2019-04-30T14:20:51.045Z,7.90
2019-04-30T14:23:20.223Z,7.57
2019-04-30T14:25:56.382Z,7.80
2019-04-30T14:28:20.349Z,7.97
2019-04-30T14:30:49.859Z,9.33
2019-04-30T14:33:26.354Z,8.38
2019-04-30T14:35:51.990Z,7.87
2019-04-30T14:38:21.131Z,9.05
2019-04-30T14:40:51.257Z,8.23
2019-04-30T14:43:51.018Z,6.42
2019-04-30T14:46:39.804Z,5.72
2019-04-30T14:49:32.576Z,6.35
2019-04-30T14:52:02.533Z,5.87
2019-04-30T14:54:50.240Z,5.25
2019-04-30T14:57:46.103Z,5.80
2019-04-30T15:00:32.988Z,7.67
2019-04-30T15:03:09.362Z,8.10
2019-04-30T15:05:48.343Z,8.08
2019-04-30T15:08:11.333Z,5.10
2019-04-30T15:10:40.687Z,5.30
2019-04-30T15:13:09.947Z,7.35
2019-04-30T15:15:39.299Z,10.18
2019-04-30T15:18:09.210Z,6.72
2019-04-30T15:20:39.822Z,6.17
2019-04-30T15:23:18.995Z,6.35
2019-04-30T15:25:48.682Z,8.63
2019-04-30T15:28:17.907Z,6.60
2019-04-30T15:30:48.807Z,6.87
2019-04-30T15:33:40.017Z,6.03
2019-04-30T15:36:09.782Z,7.28
2019-04-30T15:38:57.284Z,5.70
2019-04-30T15:41:26.544Z,5.62
2019-04-30T15:43:55.705Z,7.70
2019-04-30T15:46:24.914Z,6.40
2019-04-30T15:48:54.111Z,8.40
2019-04-30T15:51:23.352Z,4.35
2019-04-30T15:53:52.498Z,5.42
2019-04-30T15:56:34.121Z,6.55
2019-04-30T15:59:24.078Z,7.70
2019-04-30T16:01:55.758Z,7.65
2019-04-30T16:04:38.457Z,4.58
2019-04-30T16:07:08.477Z,4.90
2019-04-30T16:09:44.584Z,5.42
2019-04-30T16:12:32.717Z,6.83
2019-04-30T16:15:02.000Z,5.70
2019-04-30T16:17:31.238Z,5.83
2019-04-30T16:20:00.500Z,6.55
2019-04-30T16:22:29.835Z,8.45
2019-04-30T16:25:00.648Z,7.70
2019-04-30T16:27:30.013Z,6.92
2019-04-30T16:29:59.555Z,5.12
2019-04-30T16:32:29.370Z,6.87
2019-04-30T16:34:59.257Z,6.03
2019-04-30T16:37:28.828Z,8.48
2019-04-30T16:39:58.137Z,6.62
2019-04-30T16:42:29.071Z,6.10
2019-04-30T16:45:00.556Z,4.80
2019-04-30T16:47:29.763Z,3.90
2019-04-30T16:49:59.163Z,5.17
2019-04-30T16:52:29.421Z,6.72
2019-04-30T16:54:58.985Z,5.08
2019-04-30T16:57:30.094Z,4.80
2019-04-30T16:59:59.412Z,5.37
2019-04-30T17:02:30.580Z,7.10
2019-04-30T17:05:04.539Z,5.03
2019-04-30T17:07:59.599Z,6.15
2019-04-30T17:10:50.481Z,4.45
2019-04-30T17:13:41.297Z,4.95
2019-04-30T17:16:14.466Z,4.00
2019-04-30T17:18:43.679Z,4.92
2019-04-30T17:21:13.047Z,5.17
2019-04-30T17:23:42.222Z,4.83
2019-04-30T17:26:11.559Z,5.45
2019-04-30T17:28:40.847Z,3.20
2019-04-30T17:31:10.192Z,4.00
2019-04-30T17:33:39.485Z,4.50
2019-04-30T17:36:11.095Z,5.87
2019-04-30T17:38:42.091Z,4.53
2019-04-30T17:41:11.317Z,5.03
2019-04-30T17:43:41.780Z,6.05
2019-04-30T17:46:11.126Z,4.03
2019-04-30T17:48:41.587Z,7.12
2019-04-30T17:51:10.818Z,8.68
2019-04-30T17:53:58.981Z,6.90
2019-04-30T17:56:28.380Z,4.70
2019-04-30T17:58:57.599Z,5.35
2019-04-30T18:01:27.038Z,7.97
2019-04-30T18:03:56.233Z,5.63
2019-04-30T18:06:25.615Z,4.75
2019-04-30T18:08:54.836Z,5.25
2019-04-30T18:11:24.090Z,6.17
2019-04-30T18:13:53.499Z,7.13
2019-04-30T18:16:23.053Z,5.90
2019-04-30T18:18:59.206Z,4.83
2019-04-30T18:21:41.328Z,6.53
2019-04-30T18:24:23.918Z,7.80
2019-04-30T18:27:03.059Z,5.40
2019-04-30T18:29:32.269Z,6.40
2019-04-30T18:32:01.597Z,6.93
2019-04-30T18:34:30.947Z,6.67
2019-04-30T18:37:00.578Z,9.00
2019-04-30T18:39:29.937Z,59.10
2019-04-30T18:41:59.349Z,31.93
2019-04-30T18:44:29.561Z,8.50
2019-04-30T18:46:59.117Z,6.57
2019-04-30T18:49:28.785Z,8.90
2019-04-30T18:51:59.017Z,5.13
2019-04-30T18:54:28.963Z,8.07
2019-04-30T18:56:58.933Z,7.40
2019-04-30T18:59:28.234Z,7.67
2019-04-30T19:01:57.503Z,8.03
2019-04-30T19:04:28.694Z,7.23
2019-04-30T19:07:01.031Z,7.70
2019-04-30T19:09:44.230Z,9.40
2019-04-30T19:12:32.204Z,6.43
2019-04-30T19:15:20.546Z,6.67
2019-04-30T19:18:02.835Z,6.90
2019-04-30T19:20:38.603Z,7.17
2019-04-30T19:23:10.006Z,7.00
2019-04-30T19:25:39.100Z,9.83
2019-04-30T19:28:12.198Z,7.37
2019-04-30T19:30:39.437Z,6.60
2019-04-30T19:33:08.799Z,6.93
2019-04-30T19:35:37.991Z,8.20
2019-04-30T19:38:09.187Z,7.37
2019-04-30T19:40:39.204Z,7.30
2019-04-30T19:43:08.938Z,7.77
2019-04-30T19:45:38.232Z,6.90
2019-04-30T19:48:09.009Z,8.57
2019-04-30T19:50:38.494Z,7.20
2019-04-30T19:53:08.815Z,7.23
2019-04-30T19:55:39.383Z,7.70
2019-04-30T19:58:10.730Z,10.20
2019-04-30T20:00:39.888Z,8.70
2019-04-30T20:03:09.097Z,10.27
2019-04-30T20:05:39.433Z,6.23
2019-04-30T20:08:11.030Z,11.23
2019-04-30T20:10:39.991Z,7.27
2019-04-30T20:13:10.787Z,11.33
2019-04-30T20:15:40.384Z,8.37
2019-04-30T20:18:09.614Z,9.67
2019-04-30T20:20:40.638Z,8.73
2019-04-30T20:23:09.875Z,12.77
2019-04-30T20:25:39.144Z,9.53
2019-04-30T20:28:08.541Z,7.93
2019-04-30T20:30:39.274Z,7.10
2019-04-30T20:33:09.108Z,8.23
2019-04-30T20:35:39.033Z,11.03
2019-04-30T20:38:34.542Z,14.80
2019-04-30T20:41:04.494Z,14.27
2019-04-30T20:43:33.706Z,14.93
2019-04-30T20:46:02.945Z,13.23
2019-04-30T20:48:32.243Z,14.07
2019-04-30T20:51:01.583Z,12.60
2019-04-30T20:53:30.822Z,11.70
2019-04-30T20:56:00.036Z,11.30
2019-04-30T20:58:29.328Z,7.60
2019-04-30T21:01:04.095Z,9.30
2019-04-30T21:03:29.699Z,6.90
2019-04-30T21:06:00.581Z,10.33
2019-04-30T21:08:29.920Z,6.60
2019-04-30T21:10:59.457Z,6.90
2019-04-30T21:13:29.482Z,6.93
2019-04-30T21:15:59.499Z,10.23
2019-04-30T21:18:32.137Z,8.37
2019-04-30T21:20:59.811Z,10.33
2019-04-30T21:23:29.386Z,13.07
2019-04-30T21:25:59.060Z,12.57
2019-04-30T21:28:29.716Z,14.33
2019-04-30T21:31:02.187Z,10.03
2019-04-30T21:33:41.179Z,8.43
2019-04-30T21:36:15.016Z,9.57
2019-04-30T21:38:44.215Z,14.73
2019-04-30T21:41:13.393Z,9.70
2019-04-30T21:43:42.592Z,9.40
2019-04-30T21:46:11.848Z,9.87
2019-04-30T21:48:42.588Z,10.10
2019-04-30T21:51:12.141Z,10.93
2019-04-30T21:53:41.392Z,12.70
2019-04-30T21:56:10.562Z,10.03
2019-04-30T21:58:39.798Z,7.60
2019-04-30T22:01:26.040Z,10.33
2019-04-30T22:03:55.479Z,8.40
2019-04-30T22:06:24.682Z,11.40
2019-04-30T22:08:53.972Z,9.70
2019-04-30T22:11:23.191Z,11.70
2019-04-30T22:13:52.423Z,8.13
2019-04-30T22:16:21.612Z,10.67
2019-04-30T22:18:51.102Z,8.30
2019-04-30T22:21:20.429Z,8.23
2019-04-30T22:23:49.673Z,9.37
2019-04-30T22:26:18.899Z,10.03
2019-04-30T22:28:49.344Z,11.67
2019-04-30T22:31:19.706Z,13.53
2019-04-30T22:33:49.186Z,11.93
2019-04-30T22:36:28.835Z,12.30
2019-04-30T22:39:15.512Z,11.40
2019-04-30T22:41:44.852Z,11.33
2019-04-30T22:44:14.125Z,17.63
2019-04-30T22:46:43.307Z,28.87
2019-04-30T22:49:12.596Z,24.27
2019-04-30T22:51:41.800Z,28.97
2019-04-30T22:54:10.926Z,25.03
2019-04-30T22:56:40.094Z,32.90
2019-04-30T22:59:09.261Z,25.53
2019-04-30T23:01:47.678Z,53.23
2019-04-30T23:04:25.494Z,25.07
2019-04-30T23:06:54.676Z,20.97
2019-04-30T23:09:23.832Z,22.67
2019-04-30T23:11:53.351Z,14.43
2019-04-30T23:14:22.537Z,12.27
2019-04-30T23:16:51.731Z,12.17
2019-04-30T23:19:20.912Z,9.07
2019-04-30T23:21:50.112Z,13.10
2019-04-30T23:24:19.255Z,12.87
2019-04-30T23:26:48.626Z,12.93
2019-04-30T23:29:17.792Z,9.67
2019-04-30T23:31:46.978Z,11.63
2019-04-30T23:34:18.200Z,10.40
2019-04-30T23:36:47.092Z,12.80
2019-04-30T23:39:16.296Z,11.17
2019-04-30T23:41:45.506Z,11.07
2019-04-30T23:44:14.669Z,10.90
2019-04-30T23:46:43.856Z,12.77
2019-04-30T23:49:13.026Z,10.27
2019-04-30T23:51:42.318Z,13.20
2019-04-30T23:54:11.502Z,8.67
2019-04-30T23:56:40.693Z,10.63
2019-04-30T23:59:09.847Z,10.93
